createdAt,value
2023-06-27T00:00:18.549Z,2.92
2023-06-27T00:05:20.942Z,3.10
2023-06-27T00:10:22.585Z,3.65
2023-06-27T00:15:24.534Z,3.45
2023-06-27T00:20:26.720Z,4.10
2023-06-27T00:25:28.345Z,3.55
2023-06-27T00:30:30.021Z,3.90
2023-06-27T00:35:34.293Z,3.67
2023-06-27T00:40:35.977Z,3.75
2023-06-27T00:45:39.845Z,3.83
2023-06-27T00:50:41.767Z,3.83
2023-06-27T00:55:43.484Z,4.28
2023-06-27T01:00:45.098Z,4.00
2023-06-27T01:05:47.240Z,4.15
2023-06-27T01:11:16.247Z,4.40
2023-06-27T01:16:21.006Z,4.45
2023-06-27T01:21:26.824Z,4.35
2023-06-27T01:26:31.466Z,3.38
2023-06-27T01:31:45.146Z,4.07
2023-06-27T01:37:00.277Z,3.72
2023-06-27T01:42:09.558Z,3.25
2023-06-27T01:47:11.552Z,3.17
2023-06-27T01:52:13.708Z,3.10
2023-06-27T01:57:15.433Z,3.28
2023-06-27T02:02:17.162Z,3.15
2023-06-27T02:07:19.308Z,3.40
2023-06-27T02:12:21.077Z,3.28
2023-06-27T02:17:22.717Z,2.75
2023-06-27T02:22:24.388Z,3.15
2023-06-27T02:27:26.012Z,3.50
2023-06-27T02:32:27.647Z,3.20
2023-06-27T02:37:29.369Z,3.10
2023-06-27T02:42:31.037Z,3.25
2023-06-27T02:47:32.782Z,3.35
2023-06-27T02:52:34.459Z,3.25
2023-06-27T02:57:36.113Z,2.90
2023-06-27T03:02:41.646Z,3.30
2023-06-27T03:07:43.525Z,3.00
2023-06-27T03:12:45.278Z,2.90
2023-06-27T03:17:47.044Z,3.05
2023-06-27T03:22:49.064Z,2.95
2023-06-27T03:27:52.003Z,3.13
2023-06-27T03:32:54.805Z,3.15
2023-06-27T03:37:57.223Z,2.92
2023-06-27T03:42:59.088Z,2.80
2023-06-27T03:48:01.098Z,2.90
2023-06-27T03:53:03.083Z,2.53
2023-06-27T03:58:04.704Z,2.83
2023-06-27T04:03:06.453Z,2.05
2023-06-27T04:08:08.263Z,2.63
2023-06-27T04:13:10.543Z,2.08
2023-06-27T04:18:12.281Z,2.40
2023-06-27T04:23:14.916Z,2.10
2023-06-27T04:28:17.085Z,2.90
2023-06-27T04:33:18.755Z,3.13
2023-06-27T04:38:20.406Z,2.40
2023-06-27T04:43:22.734Z,2.67
2023-06-27T04:48:24.345Z,2.88
2023-06-27T04:53:26.210Z,2.78
2023-06-27T04:58:27.852Z,3.30
2023-06-27T05:03:29.444Z,3.17
2023-06-27T05:08:31.504Z,2.65
2023-06-27T05:13:33.162Z,2.45
2023-06-27T05:18:34.810Z,2.67
2023-06-27T05:23:36.425Z,2.55
2023-06-27T05:28:38.084Z,2.40
2023-06-27T05:33:39.697Z,2.38
2023-06-27T05:38:41.359Z,2.70
2023-06-27T05:43:42.951Z,2.28
2023-06-27T05:48:44.562Z,2.50
2023-06-27T05:53:46.188Z,2.60
2023-06-27T05:58:47.816Z,2.45
2023-06-27T06:03:49.684Z,2.30
2023-06-27T06:08:51.420Z,2.65
2023-06-27T06:13:53.148Z,2.53
2023-06-27T06:18:54.927Z,2.42
2023-06-27T06:23:56.829Z,2.72
2023-06-27T06:28:58.488Z,2.70
2023-06-27T06:34:00.096Z,2.50
2023-06-27T06:39:01.719Z,2.47
2023-06-27T06:44:03.391Z,2.25
2023-06-27T06:49:05.084Z,2.08
2023-06-27T06:54:06.757Z,2.00
2023-06-27T06:59:08.457Z,2.05
2023-06-27T07:04:10.201Z,2.25
2023-06-27T07:09:11.888Z,2.13
2023-06-27T07:14:13.914Z,1.88
2023-06-27T07:19:15.537Z,2.10
2023-06-27T07:24:17.207Z,1.70
2023-06-27T07:29:19.158Z,1.73
2023-06-27T07:34:20.832Z,1.60
2023-06-27T07:44:29.075Z,1.83
2023-06-27T07:49:32.698Z,1.85
2023-06-27T07:54:35.245Z,1.73
2023-06-27T07:59:36.947Z,1.50
2023-06-27T08:04:39.723Z,1.70
2023-06-27T08:09:41.431Z,1.95
2023-06-27T08:14:46.663Z,1.70
2023-06-27T08:19:48.311Z,1.80
2023-06-27T08:24:50.301Z,1.50
2023-06-27T08:29:51.894Z,1.60
2023-06-27T08:34:53.523Z,1.50
2023-06-27T08:39:55.160Z,1.48
2023-06-27T08:44:56.959Z,1.58
2023-06-27T08:50:04.913Z,2.08
2023-06-27T08:55:08.307Z,1.65
2023-06-27T09:00:13.354Z,1.63
2023-06-27T09:05:16.310Z,1.63
2023-06-27T09:10:18.882Z,1.48
2023-06-27T09:15:20.753Z,1.75
2023-06-27T09:20:22.801Z,1.60
2023-06-27T09:25:27.409Z,1.50
2023-06-27T09:30:31.650Z,1.48
2023-06-27T09:40:38.388Z,1.30
2023-06-27T09:45:40.330Z,1.40
2023-06-27T09:50:42.569Z,1.48
2023-06-27T09:55:47.322Z,1.45
2023-06-27T10:00:49.342Z,1.60
2023-06-27T10:06:03.149Z,1.55
2023-06-27T10:11:12.023Z,1.20
2023-06-27T10:16:15.386Z,1.30
2023-06-27T10:21:17.887Z,1.27
2023-06-27T10:26:20.557Z,1.60
2023-06-27T10:31:47.383Z,1.25
2023-06-27T10:36:56.167Z,1.35
2023-06-27T10:42:09.072Z,1.20
2023-06-27T10:47:16.522Z,1.30
2023-06-27T10:52:23.031Z,1.30
2023-06-27T10:57:24.662Z,1.20
2023-06-27T11:02:33.836Z,1.50
2023-06-27T11:07:38.190Z,1.13
2023-06-27T11:12:40.031Z,1.60
2023-06-27T11:17:41.715Z,1.70
2023-06-27T11:22:44.408Z,1.38
2023-06-27T11:27:46.008Z,1.20
2023-06-27T11:32:47.698Z,1.00
2023-06-27T11:37:53.616Z,1.30
2023-06-27T11:43:02.214Z,0.80
2023-06-27T11:48:04.192Z,1.10
2023-06-27T11:53:06.451Z,1.30
2023-06-27T11:58:08.098Z,1.30
2023-06-27T12:03:09.811Z,1.30
2023-06-27T12:08:11.474Z,1.33
2023-06-27T12:13:13.118Z,1.38
2023-06-27T12:18:25.407Z,1.13
2023-06-27T12:23:29.263Z,1.15
2023-06-27T12:28:32.747Z,1.60
2023-06-27T12:33:34.448Z,1.48
2023-06-27T12:38:36.072Z,1.60
2023-06-27T12:43:37.725Z,1.13
2023-06-27T12:48:39.360Z,1.20
2023-06-27T12:53:41.176Z,1.30
2023-06-27T12:58:46.866Z,1.27
2023-06-27T13:03:48.537Z,1.10
2023-06-27T13:08:50.218Z,1.10
2023-06-27T13:13:51.828Z,1.30
2023-06-27T13:18:55.249Z,1.10
2023-06-27T13:23:57.856Z,1.30
2023-06-27T13:28:59.541Z,1.13
2023-06-27T13:34:01.292Z,1.20
2023-06-27T13:39:02.969Z,1.23
2023-06-27T13:44:04.832Z,1.20
2023-06-27T13:49:09.443Z,1.15
2023-06-27T13:54:11.283Z,1.40
2023-06-27T13:59:13.618Z,1.20
2023-06-27T14:04:15.914Z,1.42
2023-06-27T14:09:18.327Z,1.50
2023-06-27T14:14:23.121Z,1.75
2023-06-27T14:19:24.782Z,1.20
2023-06-27T14:24:26.408Z,1.30
2023-06-27T14:29:28.341Z,1.02
2023-06-27T14:34:30.289Z,1.02
2023-06-27T14:39:31.981Z,1.15
2023-06-27T14:44:34.462Z,1.38
2023-06-27T14:49:36.416Z,1.00
2023-06-27T14:54:38.026Z,0.95
2023-06-27T14:59:39.657Z,1.10
2023-06-27T15:04:41.284Z,1.23
2023-06-27T15:09:42.948Z,0.90
2023-06-27T15:14:50.506Z,1.52
2023-06-27T15:19:54.151Z,1.20
2023-06-27T15:24:55.933Z,1.38
2023-06-27T15:29:57.734Z,1.23
2023-06-27T15:34:59.600Z,1.38
2023-06-27T15:40:01.376Z,1.40
2023-06-27T15:45:03.372Z,1.50
2023-06-27T15:50:06.282Z,1.48
2023-06-27T15:55:08.433Z,1.30
2023-06-27T16:00:10.450Z,1.40
2023-06-27T16:05:16.351Z,1.10
2023-06-27T16:10:18.089Z,1.40
2023-06-27T16:15:19.905Z,1.30
2023-06-27T16:20:21.984Z,1.88
2023-06-27T16:25:23.748Z,1.40
2023-06-27T16:30:25.637Z,1.40
2023-06-27T16:35:28.602Z,1.30
2023-06-27T16:40:31.347Z,1.40
2023-06-27T16:45:34.025Z,1.38
2023-06-27T16:50:36.804Z,1.50
2023-06-27T16:55:38.541Z,1.98
2023-06-27T17:00:40.300Z,3.00
2023-06-27T17:05:42.220Z,4.20
2023-06-27T17:10:46.020Z,6.10
2023-06-27T17:15:49.528Z,10.65
2023-06-27T17:20:51.509Z,14.20
2023-06-27T17:25:53.594Z,18.45
2023-06-27T17:30:56.512Z,16.95
2023-06-27T17:35:58.760Z,11.13
2023-06-27T17:41:00.654Z,7.65
2023-06-27T17:46:02.313Z,6.10
2023-06-27T17:51:05.696Z,6.10
2023-06-27T17:56:07.355Z,6.40
2023-06-27T18:01:09.040Z,5.80
2023-06-27T18:06:10.993Z,6.07
2023-06-27T18:11:12.647Z,5.30
2023-06-27T18:16:14.326Z,6.10
2023-06-27T18:21:17.022Z,6.43
2023-06-27T18:26:18.757Z,9.27
2023-06-27T18:31:21.035Z,8.70
2023-06-27T18:36:22.945Z,8.95
2023-06-27T18:41:24.566Z,8.40
2023-06-27T18:46:26.874Z,7.13
2023-06-27T18:51:28.552Z,5.55
2023-06-27T18:56:30.277Z,5.63
2023-06-27T19:01:33.114Z,5.45
2023-06-27T19:06:34.888Z,4.78
2023-06-27T19:11:36.793Z,4.78
2023-06-27T19:16:38.537Z,2.35
2023-06-27T19:21:40.941Z,1.83
2023-06-27T19:26:42.576Z,1.40
2023-06-27T19:31:44.437Z,1.38
2023-06-27T19:36:46.147Z,1.30
2023-06-27T19:41:47.827Z,1.70
2023-06-27T19:46:49.445Z,1.77
2023-06-27T19:51:51.545Z,1.80
2023-06-27T19:56:53.229Z,1.30
2023-06-27T20:01:54.852Z,1.70
2023-06-27T20:06:56.648Z,1.60
2023-06-27T20:11:58.323Z,1.80
2023-06-27T20:16:59.945Z,1.88
2023-06-27T20:22:03.557Z,1.67
2023-06-27T20:27:07.936Z,1.98
2023-06-27T20:32:09.594Z,1.83
2023-06-27T20:37:11.267Z,1.75
2023-06-27T20:42:13.491Z,2.25
2023-06-27T20:47:17.478Z,2.08
2023-06-27T20:52:19.149Z,1.85
2023-06-27T20:57:21.145Z,1.90
2023-06-27T21:02:22.986Z,2.05
2023-06-27T21:07:24.726Z,1.80
2023-06-27T21:12:26.381Z,1.75
2023-06-27T21:17:28.056Z,1.88
2023-06-27T21:22:29.632Z,1.60
2023-06-27T21:27:46.022Z,1.80
2023-06-27T21:32:53.008Z,1.77
2023-06-27T21:37:55.350Z,1.90
2023-06-27T21:42:58.147Z,1.73
2023-06-27T21:47:59.797Z,1.77
2023-06-27T21:53:01.575Z,2.00
2023-06-27T21:58:03.260Z,1.70
2023-06-27T22:03:05.194Z,1.92
2023-06-27T22:08:07.110Z,1.77
2023-06-27T22:13:08.795Z,1.70
2023-06-27T22:18:10.619Z,1.55
2023-06-27T22:23:12.267Z,1.60
2023-06-27T22:28:13.868Z,1.88
2023-06-27T22:33:15.589Z,1.50
2023-06-27T22:38:18.721Z,1.27
2023-06-27T22:43:20.316Z,1.60
2023-06-27T22:48:21.952Z,1.50
2023-06-27T22:53:24.962Z,1.63
2023-06-27T22:58:26.596Z,1.48
2023-06-27T23:03:28.228Z,1.52
2023-06-27T23:08:30.445Z,1.83
2023-06-27T23:13:32.080Z,1.88
2023-06-27T23:18:35.344Z,1.88
2023-06-27T23:23:42.927Z,2.00
2023-06-27T23:28:49.651Z,1.63
2023-06-27T23:33:51.387Z,1.63
2023-06-27T23:38:53.060Z,1.50
2023-06-27T23:43:54.684Z,1.90
2023-06-27T23:48:56.311Z,1.77
2023-06-27T23:53:58.500Z,1.92
2023-06-27T23:59:00.148Z,1.60
